sensor_id;sensor_type;location;lat;lon;timestamp;pressure;altitude;pressure_sealevel;temperature;humidity
2563;BME280;1291;51.420;6.970;2022-08-18T00:01:05;99682.38;;;47.09;13.45
2563;BME280;1291;51.420;6.970;2022-08-18T00:03:31;99683.84;;;47.11;13.44
2563;BME280;1291;51.420;6.970;2022-08-18T00:05:56;99693.84;;;46.78;13.76
2563;BME280;1291;51.420;6.970;2022-08-18T00:08:22;99692.38;;;47.30;12.98
2563;BME280;1291;51.420;6.970;2022-08-18T00:10:47;99686.56;;;46.63;13.81
2563;BME280;1291;51.420;6.970;2022-08-18T00:13:13;99688.78;;;46.81;13.88
2563;BME280;1291;51.420;6.970;2022-08-18T00:15:38;99692.09;;;47.11;13.19
2563;BME280;1291;51.420;6.970;2022-08-18T00:18:03;99697.81;;;47.17;13.41
2563;BME280;1291;51.420;6.970;2022-08-18T00:20:32;99695.75;;;47.19;13.16
2563;BME280;1291;51.420;6.970;2022-08-18T00:22:58;99695.69;;;47.73;12.60
2563;BME280;1291;51.420;6.970;2022-08-18T00:25:24;99689.88;;;47.28;13.13
2563;BME280;1291;51.420;6.970;2022-08-18T00:27:49;99695.31;;;47.22;12.95
2563;BME280;1291;51.420;6.970;2022-08-18T00:30:18;99694.84;;;48.00;12.52
2563;BME280;1291;51.420;6.970;2022-08-18T00:32:48;99699.69;;;47.84;12.53
2563;BME280;1291;51.420;6.970;2022-08-18T00:35:26;99696.72;;;47.72;12.69
2563;BME280;1291;51.420;6.970;2022-08-18T00:37:55;99703.50;;;47.70;12.88
2563;BME280;1291;51.420;6.970;2022-08-18T00:40:24;99715.56;;;47.07;13.69
2563;BME280;1291;51.420;6.970;2022-08-18T00:42:55;99712.91;;;47.34;13.26
2563;BME280;1291;51.420;6.970;2022-08-18T00:45:30;99705.31;;;47.49;12.83
2563;BME280;1291;51.420;6.970;2022-08-18T00:47:57;99706.81;;;47.39;13.36
2563;BME280;1291;51.420;6.970;2022-08-18T00:50:44;99716.41;;;47.56;13.02
2563;BME280;1291;51.420;6.970;2022-08-18T00:56:05;99700.72;;;47.02;13.43
2563;BME280;1291;51.420;6.970;2022-08-18T00:59:00;99702.94;;;47.20;13.20
2563;BME280;1291;51.420;6.970;2022-08-18T01:01:31;99699.69;;;47.91;13.15
2563;BME280;1291;51.420;6.970;2022-08-18T01:04:20;99697.91;;;46.88;13.42
2563;BME280;1291;51.420;6.970;2022-08-18T01:06:56;99696.66;;;47.52;12.97
2563;BME280;1291;51.420;6.970;2022-08-18T01:09:24;99695.50;;;46.72;14.02
2563;BME280;1291;51.420;6.970;2022-08-18T01:11:50;99696.41;;;47.34;13.23
2563;BME280;1291;51.420;6.970;2022-08-18T01:14:18;99697.75;;;46.97;13.66
2563;BME280;1291;51.420;6.970;2022-08-18T01:16:46;99686.81;;;47.10;13.66
2563;BME280;1291;51.420;6.970;2022-08-18T01:19:30;99684.53;;;47.20;13.44
2563;BME280;1291;51.420;6.970;2022-08-18T01:22:21;99684.13;;;47.30;13.30
2563;BME280;1291;51.420;6.970;2022-08-18T01:24:51;99675.31;;;47.54;13.45
2563;BME280;1291;51.420;6.970;2022-08-18T01:27:40;99687.63;;;47.10;13.91
2563;BME280;1291;51.420;6.970;2022-08-18T01:30:14;99687.75;;;46.19;14.56
2563;BME280;1291;51.420;6.970;2022-08-18T01:32:41;99680.28;;;47.18;13.71
2563;BME280;1291;51.420;6.970;2022-08-18T01:35:11;99677.06;;;47.07;13.95
2563;BME280;1291;51.420;6.970;2022-08-18T01:37:37;99677.84;;;46.88;13.73
2563;BME280;1291;51.420;6.970;2022-08-18T01:40:05;99684.28;;;46.73;13.91
2563;BME280;1291;51.420;6.970;2022-08-18T01:42:32;99692.97;;;46.77;14.05
2563;BME280;1291;51.420;6.970;2022-08-18T01:44:57;99687.69;;;47.17;13.59
2563;BME280;1291;51.420;6.970;2022-08-18T01:47:23;99692.13;;;46.13;14.82
2563;BME280;1291;51.420;6.970;2022-08-18T01:49:51;99697.53;;;46.98;13.87
2563;BME280;1291;51.420;6.970;2022-08-18T01:52:20;99698.56;;;46.90;13.63
2563;BME280;1291;51.420;6.970;2022-08-18T01:54:47;99705.38;;;46.38;14.71
2563;BME280;1291;51.420;6.970;2022-08-18T01:57:17;99703.91;;;46.07;14.65
2563;BME280;1291;51.420;6.970;2022-08-18T01:59:49;99700.81;;;46.45;14.04
2563;BME280;1291;51.420;6.970;2022-08-18T02:02:19;99704.88;;;46.21;14.60
2563;BME280;1291;51.420;6.970;2022-08-18T02:04:47;99703.00;;;46.28;14.40
2563;BME280;1291;51.420;6.970;2022-08-18T02:07:13;99700.41;;;45.98;14.83
2563;BME280;1291;51.420;6.970;2022-08-18T02:09:40;99706.19;;;46.95;13.53
2563;BME280;1291;51.420;6.970;2022-08-18T02:12:07;99698.81;;;46.95;13.92
2563;BME280;1291;51.420;6.970;2022-08-18T02:14:36;99710.00;;;46.94;13.63
2563;BME280;1291;51.420;6.970;2022-08-18T02:17:03;99710.00;;;46.31;14.26
2563;BME280;1291;51.420;6.970;2022-08-18T02:19:40;99706.84;;;46.62;14.17
2563;BME280;1291;51.420;6.970;2022-08-18T02:22:08;99711.06;;;46.58;14.38
2563;BME280;1291;51.420;6.970;2022-08-18T02:24:34;99705.28;;;45.02;15.40
2563;BME280;1291;51.420;6.970;2022-08-18T02:27:03;99704.44;;;46.81;14.12
2563;BME280;1291;51.420;6.970;2022-08-18T02:29:28;99698.09;;;46.17;14.28
2563;BME280;1291;51.420;6.970;2022-08-18T02:31:57;99696.91;;;45.83;14.87
2563;BME280;1291;51.420;6.970;2022-08-18T02:34:23;99693.53;;;46.31;14.49
2563;BME280;1291;51.420;6.970;2022-08-18T02:36:49;99690.94;;;46.23;14.50
2563;BME280;1291;51.420;6.970;2022-08-18T02:39:15;99692.19;;;46.20;14.36
2563;BME280;1291;51.420;6.970;2022-08-18T02:41:41;99686.28;;;46.51;14.08
2563;BME280;1291;51.420;6.970;2022-08-18T02:44:10;99679.06;;;45.29;15.29
2563;BME280;1291;51.420;6.970;2022-08-18T02:46:36;99678.63;;;45.90;14.82
2563;BME280;1291;51.420;6.970;2022-08-18T02:49:02;99681.41;;;46.47;13.88
2563;BME280;1291;51.420;6.970;2022-08-18T02:51:28;99687.78;;;46.26;14.49
2563;BME280;1291;51.420;6.970;2022-08-18T02:53:54;99683.81;;;45.06;15.19
2563;BME280;1291;51.420;6.970;2022-08-18T02:56:24;99681.09;;;45.85;14.72
2563;BME280;1291;51.420;6.970;2022-08-18T02:59:02;99684.88;;;45.63;14.57
2563;BME280;1291;51.420;6.970;2022-08-18T03:01:31;99686.03;;;45.68;14.92
2563;BME280;1291;51.420;6.970;2022-08-18T03:03:58;99687.69;;;46.12;14.52
2563;BME280;1291;51.420;6.970;2022-08-18T03:06:24;99684.13;;;45.69;14.73
2563;BME280;1291;51.420;6.970;2022-08-18T03:08:51;99690.19;;;46.35;13.95
2563;BME280;1291;51.420;6.970;2022-08-18T03:11:26;99690.91;;;45.73;14.93
2563;BME280;1291;51.420;6.970;2022-08-18T03:13:52;99694.44;;;46.73;13.78
2563;BME280;1291;51.420;6.970;2022-08-18T03:16:18;99690.75;;;46.03;14.15
2563;BME280;1291;51.420;6.970;2022-08-18T03:18:45;99689.31;;;45.06;15.18
2563;BME280;1291;51.420;6.970;2022-08-18T03:21:14;99689.91;;;46.52;13.68
2563;BME280;1291;51.420;6.970;2022-08-18T03:23:40;99687.34;;;46.01;14.28
2563;BME280;1291;51.420;6.970;2022-08-18T03:26:08;99693.28;;;46.54;13.93
2563;BME280;1291;51.420;6.970;2022-08-18T03:28:45;99691.34;;;45.98;14.55
2563;BME280;1291;51.420;6.970;2022-08-18T03:31:13;99685.25;;;46.03;14.37
2563;BME280;1291;51.420;6.970;2022-08-18T03:33:40;99682.91;;;46.21;14.22
2563;BME280;1291;51.420;6.970;2022-08-18T03:36:13;99674.81;;;46.76;13.76
2563;BME280;1291;51.420;6.970;2022-08-18T03:38:39;99675.28;;;46.45;13.78
2563;BME280;1291;51.420;6.970;2022-08-18T03:41:06;99687.88;;;46.39;14.09
2563;BME280;1291;51.420;6.970;2022-08-18T03:43:33;99679.44;;;46.12;14.41
2563;BME280;1291;51.420;6.970;2022-08-18T03:46:04;99687.09;;;46.80;13.63
2563;BME280;1291;51.420;6.970;2022-08-18T03:48:31;99685.88;;;46.26;13.97
2563;BME280;1291;51.420;6.970;2022-08-18T03:51:24;99679.25;;;46.42;14.29
2563;BME280;1291;51.420;6.970;2022-08-18T03:53:51;99684.72;;;46.07;14.07
2563;BME280;1291;51.420;6.970;2022-08-18T03:56:22;99686.88;;;46.18;14.30
2563;BME280;1291;51.420;6.970;2022-08-18T03:58:54;99695.28;;;46.39;13.80
2563;BME280;1291;51.420;6.970;2022-08-18T04:01:23;99692.94;;;45.86;14.56
2563;BME280;1291;51.420;6.970;2022-08-18T04:03:52;99684.19;;;46.25;14.16
2563;BME280;1291;51.420;6.970;2022-08-18T04:06:24;99697.44;;;46.43;13.98
2563;BME280;1291;51.420;6.970;2022-08-18T04:08:52;99692.34;;;45.11;15.20
2563;BME280;1291;51.420;6.970;2022-08-18T04:11:18;99694.34;;;46.25;13.84
2563;BME280;1291;51.420;6.970;2022-08-18T04:13:43;99695.59;;;46.85;13.60
2563;BME280;1291;51.420;6.970;2022-08-18T04:16:09;99691.78;;;46.23;14.30
2563;BME280;1291;51.420;6.970;2022-08-18T04:18:35;99701.16;;;47.05;13.20
2563;BME280;1291;51.420;6.970;2022-08-18T04:21:06;99691.63;;;47.56;12.66
2563;BME280;1291;51.420;6.970;2022-08-18T04:23:33;99697.75;;;46.97;13.61
2563;BME280;1291;51.420;6.970;2022-08-18T04:26:00;99695.59;;;47.47;13.02
2563;BME280;1291;51.420;6.970;2022-08-18T04:28:26;99700.75;;;44.79;15.50
2563;BME280;1291;51.420;6.970;2022-08-18T04:30:53;99693.25;;;46.19;14.15
2563;BME280;1291;51.420;6.970;2022-08-18T04:33:19;99693.31;;;45.61;14.93
2563;BME280;1291;51.420;6.970;2022-08-18T04:35:45;99703.69;;;46.30;13.91
2563;BME280;1291;51.420;6.970;2022-08-18T04:38:14;99697.56;;;46.07;14.04
2563;BME280;1291;51.420;6.970;2022-08-18T04:40:39;99686.31;;;46.23;14.20
2563;BME280;1291;51.420;6.970;2022-08-18T04:43:06;99680.38;;;46.26;14.40
2563;BME280;1291;51.420;6.970;2022-08-18T04:45:40;99685.50;;;46.29;14.20
2563;BME280;1291;51.420;6.970;2022-08-18T04:48:05;99685.66;;;46.21;14.02
2563;BME280;1291;51.420;6.970;2022-08-18T04:50:31;99685.19;;;46.17;13.91
2563;BME280;1291;51.420;6.970;2022-08-18T04:52:56;99690.31;;;46.21;14.11
2563;BME280;1291;51.420;6.970;2022-08-18T04:55:52;99689.69;;;46.25;13.75
2563;BME280;1291;51.420;6.970;2022-08-18T04:58:19;99703.03;;;46.63;13.54
2563;BME280;1291;51.420;6.970;2022-08-18T05:00:56;99701.38;;;46.62;13.74
2563;BME280;1291;51.420;6.970;2022-08-18T05:03:23;99704.69;;;46.58;13.76
2563;BME280;1291;51.420;6.970;2022-08-18T05:05:52;99708.34;;;47.06;13.30
2563;BME280;1291;51.420;6.970;2022-08-18T05:08:17;99710.38;;;45.78;14.89
2563;BME280;1291;51.420;6.970;2022-08-18T05:10:43;99708.38;;;46.71;13.61
2563;BME280;1291;51.420;6.970;2022-08-18T05:13:08;99717.75;;;46.49;13.72
2563;BME280;1291;51.420;6.970;2022-08-18T05:15:33;99717.28;;;45.52;15.13
2563;BME280;1291;51.420;6.970;2022-08-18T05:17:59;99724.13;;;46.91;13.63
2563;BME280;1291;51.420;6.970;2022-08-18T05:20:25;99723.50;;;46.04;14.45
2563;BME280;1291;51.420;6.970;2022-08-18T05:22:50;99727.78;;;46.35;14.23
2563;BME280;1291;51.420;6.970;2022-08-18T05:25:15;99723.56;;;47.02;13.41
2563;BME280;1291;51.420;6.970;2022-08-18T05:27:41;99726.94;;;46.98;13.58
2563;BME280;1291;51.420;6.970;2022-08-18T05:30:09;99735.31;;;44.51;16.12
2563;BME280;1291;51.420;6.970;2022-08-18T05:32:40;99735.03;;;42.66;18.00
2563;BME280;1291;51.420;6.970;2022-08-18T05:35:22;99730.50;;;46.07;14.69
2563;BME280;1291;51.420;6.970;2022-08-18T05:37:59;99734.09;;;46.92;13.81
2563;BME280;1291;51.420;6.970;2022-08-18T05:40:28;99737.47;;;46.31;14.74
2563;BME280;1291;51.420;6.970;2022-08-18T05:42:57;99740.94;;;45.75;14.83
2563;BME280;1291;51.420;6.970;2022-08-18T05:45:23;99738.09;;;47.31;13.58
2563;BME280;1291;51.420;6.970;2022-08-18T05:47:49;99728.81;;;46.34;14.30
2563;BME280;1291;51.420;6.970;2022-08-18T05:50:18;99730.44;;;47.20;13.38
2563;BME280;1291;51.420;6.970;2022-08-18T05:52:53;99731.13;;;47.35;13.76
2563;BME280;1291;51.420;6.970;2022-08-18T05:55:26;99736.53;;;47.15;13.48
2563;BME280;1291;51.420;6.970;2022-08-18T05:58:20;99745.31;;;45.91;15.00
2563;BME280;1291;51.420;6.970;2022-08-18T06:00:55;99739.19;;;46.10;14.73
2563;BME280;1291;51.420;6.970;2022-08-18T06:03:27;99744.72;;;47.08;13.51
2563;BME280;1291;51.420;6.970;2022-08-18T06:06:04;99743.75;;;46.81;13.95
2563;BME280;1291;51.420;6.970;2022-08-18T06:08:49;99752.47;;;47.33;13.37
2563;BME280;1291;51.420;6.970;2022-08-18T06:11:17;99751.72;;;45.76;15.12
2563;BME280;1291;51.420;6.970;2022-08-18T06:13:44;99760.03;;;46.83;13.88
2563;BME280;1291;51.420;6.970;2022-08-18T06:16:18;99759.91;;;46.69;14.12
2563;BME280;1291;51.420;6.970;2022-08-18T06:21:39;99763.03;;;46.88;14.07
2563;BME280;1291;51.420;6.970;2022-08-18T06:24:30;99765.91;;;46.45;14.44
2563;BME280;1291;51.420;6.970;2022-08-18T06:29:53;99762.59;;;46.06;15.01
2563;BME280;1291;51.420;6.970;2022-08-18T06:35:18;99768.75;;;46.58;14.42
2563;BME280;1291;51.420;6.970;2022-08-18T06:41:18;99777.72;;;46.02;14.57
2563;BME280;1291;51.420;6.970;2022-08-18T06:43:54;99785.50;;;47.05;14.04
2563;BME280;1291;51.420;6.970;2022-08-18T06:46:28;99789.31;;;46.97;14.21
2563;BME280;1291;51.420;6.970;2022-08-18T06:49:03;99786.09;;;47.35;13.51
2563;BME280;1291;51.420;6.970;2022-08-18T06:51:30;99796.47;;;46.98;13.79
2563;BME280;1291;51.420;6.970;2022-08-18T06:59:30;99790.09;;;46.13;14.96
2563;BME280;1291;51.420;6.970;2022-08-18T07:07:35;99792.50;;;47.07;14.22
2563;BME280;1291;51.420;6.970;2022-08-18T07:12:42;99797.41;;;46.06;15.26
2563;BME280;1291;51.420;6.970;2022-08-18T07:15:11;99798.50;;;46.54;14.32
2563;BME280;1291;51.420;6.970;2022-08-18T07:17:37;99800.16;;;46.49;14.67
2563;BME280;1291;51.420;6.970;2022-08-18T07:20:20;99795.13;;;46.59;14.42
2563;BME280;1291;51.420;6.970;2022-08-18T07:25:30;99789.09;;;45.77;15.55
2563;BME280;1291;51.420;6.970;2022-08-18T07:27:57;99796.84;;;46.88;14.40
2563;BME280;1291;51.420;6.970;2022-08-18T07:30:36;99795.78;;;47.79;13.43
2563;BME280;1291;51.420;6.970;2022-08-18T07:35:42;99793.81;;;47.60;13.46
2563;BME280;1291;51.420;6.970;2022-08-18T07:38:33;99790.94;;;46.63;14.52
2563;BME280;1291;51.420;6.970;2022-08-18T07:41:05;99785.91;;;46.67;14.31
2563;BME280;1291;51.420;6.970;2022-08-18T07:43:45;99794.06;;;47.58;13.60
2563;BME280;1291;51.420;6.970;2022-08-18T07:46:35;99791.56;;;45.57;15.73
2563;BME280;1291;51.420;6.970;2022-08-18T07:49:02;99789.25;;;46.62;14.86
2563;BME280;1291;51.420;6.970;2022-08-18T07:51:53;99784.38;;;45.71;15.79
2563;BME280;1291;51.420;6.970;2022-08-18T07:57:55;99781.03;;;46.41;14.90
2563;BME280;1291;51.420;6.970;2022-08-18T08:00:08;99783.09;;;46.88;14.73
2563;BME280;1291;51.420;6.970;2022-08-18T08:08:24;99778.50;;;46.67;14.52
2563;BME280;1291;51.420;6.970;2022-08-18T08:21:10;99783.69;;;46.55;14.86
2563;BME280;1291;51.420;6.970;2022-08-18T08:23:56;99789.53;;;46.46;14.80
2563;BME280;1291;51.420;6.970;2022-08-18T08:32:10;99803.38;;;47.70;13.93
2563;BME280;1291;51.420;6.970;2022-08-18T08:34:38;99795.38;;;47.76;13.39
2563;BME280;1291;51.420;6.970;2022-08-18T08:37:20;99813.75;;;47.20;14.39
2563;BME280;1291;51.420;6.970;2022-08-18T08:40:03;99802.84;;;47.40;14.20
2563;BME280;1291;51.420;6.970;2022-08-18T08:45:41;99806.09;;;47.15;14.03
2563;BME280;1291;51.420;6.970;2022-08-18T08:48:27;99801.44;;;47.58;13.59
2563;BME280;1291;51.420;6.970;2022-08-18T08:51:00;99798.66;;;48.39;13.27
2563;BME280;1291;51.420;6.970;2022-08-18T08:53:50;99807.28;;;47.96;13.55
2563;BME280;1291;51.420;6.970;2022-08-18T08:56:20;99806.88;;;48.06;13.39
2563;BME280;1291;51.420;6.970;2022-08-18T08:59:07;99807.97;;;48.45;13.19
2563;BME280;1291;51.420;6.970;2022-08-18T09:07:28;99821.28;;;48.88;12.81
2563;BME280;1291;51.420;6.970;2022-08-18T09:10:36;99824.69;;;48.90;12.91
2563;BME280;1291;51.420;6.970;2022-08-18T09:24:39;99815.47;;;47.76;13.54
2563;BME280;1291;51.420;6.970;2022-08-18T09:27:22;99813.25;;;46.53;15.03
2563;BME280;1291;51.420;6.970;2022-08-18T09:29:55;99809.81;;;48.04;13.49
2563;BME280;1291;51.420;6.970;2022-08-18T09:37:25;99805.41;;;46.79;14.48
2563;BME280;1291;51.420;6.970;2022-08-18T09:39:58;99807.28;;;48.03;13.19
2563;BME280;1291;51.420;6.970;2022-08-18T09:43:15;99810.28;;;45.69;15.15
2563;BME280;1291;51.420;6.970;2022-08-18T09:45:54;99807.13;;;48.38;13.08
2563;BME280;1291;51.420;6.970;2022-08-18T09:48:30;99802.31;;;46.10;14.66
2563;BME280;1291;51.420;6.970;2022-08-18T09:51:14;99805.16;;;48.85;12.67
2563;BME280;1291;51.420;6.970;2022-08-18T09:56:12;99821.88;;;47.97;13.22
2563;BME280;1291;51.420;6.970;2022-08-18T09:58:53;99821.13;;;46.85;13.89
2563;BME280;1291;51.420;6.970;2022-08-18T10:01:39;99809.88;;;48.38;12.48
2563;BME280;1291;51.420;6.970;2022-08-18T10:06:43;99815.81;;;48.41;12.50
2563;BME280;1291;51.420;6.970;2022-08-18T10:09:27;99809.97;;;47.28;13.95
2563;BME280;1291;51.420;6.970;2022-08-18T10:12:57;99817.31;;;45.93;14.74
2563;BME280;1291;51.420;6.970;2022-08-18T10:15:29;99813.66;;;48.17;13.02
2563;BME280;1291;51.420;6.970;2022-08-18T10:21:16;99825.06;;;45.68;14.88
2563;BME280;1291;51.420;6.970;2022-08-18T10:34:50;99811.13;;;48.28;12.57
2563;BME280;1291;51.420;6.970;2022-08-18T10:37:25;99811.22;;;47.19;13.00
2563;BME280;1291;51.420;6.970;2022-08-18T10:39:58;99809.66;;;49.51;11.11
2563;BME280;1291;51.420;6.970;2022-08-18T10:45:25;99806.47;;;48.49;12.03
2563;BME280;1291;51.420;6.970;2022-08-18T10:50:37;99808.13;;;47.00;12.81
2563;BME280;1291;51.420;6.970;2022-08-18T10:53:18;99805.31;;;47.70;12.38
2563;BME280;1291;51.420;6.970;2022-08-18T10:58:33;99812.97;;;46.20;13.50
2563;BME280;1291;51.420;6.970;2022-08-18T11:01:12;99804.56;;;48.43;11.64
2563;BME280;1291;51.420;6.970;2022-08-18T11:04:08;99802.94;;;49.40;11.08
2563;BME280;1291;51.420;6.970;2022-08-18T11:06:43;99805.22;;;48.31;12.26
2563;BME280;1291;51.420;6.970;2022-08-18T11:09:11;99806.66;;;46.26;13.59
2563;BME280;1291;51.420;6.970;2022-08-18T11:11:40;99795.47;;;48.36;11.96
2563;BME280;1291;51.420;6.970;2022-08-18T11:19:44;99793.91;;;47.25;12.19
2563;BME280;1291;51.420;6.970;2022-08-18T11:22:48;99784.63;;;47.32;12.54
2563;BME280;1291;51.420;6.970;2022-08-18T11:25:29;99777.63;;;48.78;11.62
2563;BME280;1291;51.420;6.970;2022-08-18T11:27:55;99783.97;;;46.39;13.28
2563;BME280;1291;51.420;6.970;2022-08-18T11:30:24;99779.78;;;48.49;11.68
2563;BME280;1291;51.420;6.970;2022-08-18T11:32:51;99781.47;;;48.44;11.82
2563;BME280;1291;51.420;6.970;2022-08-18T11:35:26;99781.41;;;49.04;11.19
2563;BME280;1291;51.420;6.970;2022-08-18T11:38:11;99783.41;;;48.37;11.78
2563;BME280;1291;51.420;6.970;2022-08-18T11:40:40;99783.06;;;47.65;12.10
2563;BME280;1291;51.420;6.970;2022-08-18T11:51:10;99775.25;;;47.88;11.88
2563;BME280;1291;51.420;6.970;2022-08-18T12:01:39;99785.09;;;47.49;12.36
2563;BME280;1291;51.420;6.970;2022-08-18T12:04:27;99785.16;;;47.56;12.40
2563;BME280;1291;51.420;6.970;2022-08-18T12:09:31;99787.41;;;47.04;12.51
2563;BME280;1291;51.420;6.970;2022-08-18T12:12:04;99776.34;;;46.56;13.45
2563;BME280;1291;51.420;6.970;2022-08-18T12:14:50;99773.63;;;46.13;13.01
2563;BME280;1291;51.420;6.970;2022-08-18T12:17:16;99767.06;;;48.42;12.02
2563;BME280;1291;51.420;6.970;2022-08-18T12:19:42;99764.97;;;48.30;11.94
2563;BME280;1291;51.420;6.970;2022-08-18T12:22:15;99770.25;;;48.72;11.50
2563;BME280;1291;51.420;6.970;2022-08-18T12:24:41;99763.38;;;49.53;10.94
2563;BME280;1291;51.420;6.970;2022-08-18T12:27:14;99764.97;;;49.29;11.19
2563;BME280;1291;51.420;6.970;2022-08-18T12:29:41;99755.69;;;49.62;10.82
2563;BME280;1291;51.420;6.970;2022-08-18T12:32:07;99766.03;;;49.73;10.85
2563;BME280;1291;51.420;6.970;2022-08-18T12:34:33;99776.41;;;49.71;10.46
2563;BME280;1291;51.420;6.970;2022-08-18T12:36:58;99777.69;;;50.57;10.49
2563;BME280;1291;51.420;6.970;2022-08-18T12:39:28;99785.25;;;50.18;10.20
2563;BME280;1291;51.420;6.970;2022-08-18T12:41:55;99784.63;;;50.16;10.30
2563;BME280;1291;51.420;6.970;2022-08-18T12:44:21;99797.13;;;48.90;11.35
2563;BME280;1291;51.420;6.970;2022-08-18T12:46:47;99794.47;;;49.28;11.02
2563;BME280;1291;51.420;6.970;2022-08-18T12:49:22;99802.59;;;49.17;11.08
2563;BME280;1291;51.420;6.970;2022-08-18T12:51:50;99811.75;;;50.26;10.53
2563;BME280;1291;51.420;6.970;2022-08-18T12:54:19;99813.94;;;50.68;10.45
2563;BME280;1291;51.420;6.970;2022-08-18T12:56:47;99815.78;;;49.60;11.26
2563;BME280;1291;51.420;6.970;2022-08-18T12:59:14;99812.09;;;50.11;10.97
2563;BME280;1291;51.420;6.970;2022-08-18T13:01:40;99823.72;;;49.43;11.07
2563;BME280;1291;51.420;6.970;2022-08-18T13:04:06;99817.38;;;51.07;9.63
2563;BME280;1291;51.420;6.970;2022-08-18T13:06:34;99807.97;;;50.71;10.02
2563;BME280;1291;51.420;6.970;2022-08-18T13:09:00;99787.75;;;49.95;10.30
2563;BME280;1291;51.420;6.970;2022-08-18T13:11:25;99777.47;;;50.84;9.72
2563;BME280;1291;51.420;6.970;2022-08-18T13:13:52;99770.63;;;50.61;10.40
2563;BME280;1291;51.420;6.970;2022-08-18T13:16:19;99775.16;;;51.67;9.29
2563;BME280;1291;51.420;6.970;2022-08-18T13:18:45;99768.63;;;51.91;9.01
2563;BME280;1291;51.420;6.970;2022-08-18T13:21:12;99767.63;;;50.88;9.69
2563;BME280;1291;51.420;6.970;2022-08-18T13:23:39;99754.66;;;50.45;10.03
2563;BME280;1291;51.420;6.970;2022-08-18T13:26:06;99751.59;;;49.71;10.28
2563;BME280;1291;51.420;6.970;2022-08-18T13:28:34;99763.84;;;48.78;11.13
2563;BME280;1291;51.420;6.970;2022-08-18T13:31:01;99761.31;;;52.20;8.55
2563;BME280;1291;51.420;6.970;2022-08-18T13:33:27;99757.59;;;52.74;8.61
2563;BME280;1291;51.420;6.970;2022-08-18T13:35:53;99763.66;;;53.64;7.97
2563;BME280;1291;51.420;6.970;2022-08-18T13:38:20;99753.66;;;53.80;7.77
2563;BME280;1291;51.420;6.970;2022-08-18T13:40:51;99757.94;;;50.97;9.46
2563;BME280;1291;51.420;6.970;2022-08-18T13:43:20;99741.00;;;51.42;9.48
2563;BME280;1291;51.420;6.970;2022-08-18T13:45:47;99734.91;;;51.03;9.58
2563;BME280;1291;51.420;6.970;2022-08-18T13:48:15;99744.69;;;50.19;10.05
2563;BME280;1291;51.420;6.970;2022-08-18T13:50:41;99744.22;;;50.22;10.01
2563;BME280;1291;51.420;6.970;2022-08-18T13:53:14;99736.41;;;51.78;8.92
2563;BME280;1291;51.420;6.970;2022-08-18T13:55:40;99734.19;;;49.39;10.26
2563;BME280;1291;51.420;6.970;2022-08-18T13:58:05;99727.53;;;50.79;8.90
2563;BME280;1291;51.420;6.970;2022-08-18T14:00:32;99721.94;;;50.86;8.98
2563;BME280;1291;51.420;6.970;2022-08-18T14:02:59;99721.81;;;52.02;8.18
2563;BME280;1291;51.420;6.970;2022-08-18T14:05:25;99720.38;;;50.28;9.62
2563;BME280;1291;51.420;6.970;2022-08-18T14:07:51;99718.72;;;50.27;9.47
2563;BME280;1291;51.420;6.970;2022-08-18T14:10:17;99711.56;;;50.37;9.55
2563;BME280;1291;51.420;6.970;2022-08-18T14:12:43;99710.06;;;49.21;10.56
2563;BME280;1291;51.420;6.970;2022-08-18T14:15:12;99706.06;;;49.17;10.39
2563;BME280;1291;51.420;6.970;2022-08-18T14:17:38;99706.97;;;48.97;10.44
2563;BME280;1291;51.420;6.970;2022-08-18T14:20:07;99693.63;;;49.71;9.79
2563;BME280;1291;51.420;6.970;2022-08-18T14:22:55;99697.66;;;51.67;8.19
2563;BME280;1291;51.420;6.970;2022-08-18T14:25:40;99708.38;;;49.90;9.78
2563;BME280;1291;51.420;6.970;2022-08-18T14:28:26;99718.72;;;49.24;9.57
2563;BME280;1291;51.420;6.970;2022-08-18T14:30:52;99719.25;;;49.01;9.92
2563;BME280;1291;51.420;6.970;2022-08-18T14:33:20;99718.22;;;50.73;8.92
2563;BME280;1291;51.420;6.970;2022-08-18T14:35:46;99716.59;;;50.47;9.15
2563;BME280;1291;51.420;6.970;2022-08-18T14:38:12;99712.78;;;51.03;8.52
2563;BME280;1291;51.420;6.970;2022-08-18T14:40:41;99716.22;;;50.18;9.47
2563;BME280;1291;51.420;6.970;2022-08-18T14:43:07;99713.38;;;49.43;9.92
2563;BME280;1291;51.420;6.970;2022-08-18T14:45:33;99713.00;;;50.47;9.54
2563;BME280;1291;51.420;6.970;2022-08-18T14:48:00;99709.34;;;50.28;9.45
2563;BME280;1291;51.420;6.970;2022-08-18T14:50:25;99706.66;;;50.46;9.12
2563;BME280;1291;51.420;6.970;2022-08-18T14:52:52;99715.63;;;49.53;9.68
2563;BME280;1291;51.420;6.970;2022-08-18T14:55:18;99720.25;;;49.20;9.62
2563;BME280;1291;51.420;6.970;2022-08-18T14:57:43;99716.78;;;50.27;8.73
2563;BME280;1291;51.420;6.970;2022-08-18T15:00:14;99711.25;;;50.89;8.22
2563;BME280;1291;51.420;6.970;2022-08-18T15:02:43;99713.41;;;50.25;8.65
2563;BME280;1291;51.420;6.970;2022-08-18T15:05:10;99716.22;;;50.18;9.06
2563;BME280;1291;51.420;6.970;2022-08-18T15:07:36;99716.63;;;48.55;10.19
2563;BME280;1291;51.420;6.970;2022-08-18T15:10:09;99710.34;;;49.51;9.41
2563;BME280;1291;51.420;6.970;2022-08-18T15:12:35;99707.22;;;51.22;8.46
2563;BME280;1291;51.420;6.970;2022-08-18T15:15:03;99710.56;;;51.42;8.75
2563;BME280;1291;51.420;6.970;2022-08-18T15:17:29;99705.84;;;50.57;8.81
2563;BME280;1291;51.420;6.970;2022-08-18T15:19:56;99702.44;;;47.78;10.83
2563;BME280;1291;51.420;6.970;2022-08-18T15:22:21;99698.28;;;50.09;8.95
2563;BME280;1291;51.420;6.970;2022-08-18T15:25:06;99686.94;;;51.10;8.57
2563;BME280;1291;51.420;6.970;2022-08-18T15:27:51;99695.75;;;50.26;9.17
2563;BME280;1291;51.420;6.970;2022-08-18T15:30:17;99695.69;;;51.07;8.45
2563;BME280;1291;51.420;6.970;2022-08-18T15:32:43;99694.72;;;51.50;8.04
2563;BME280;1291;51.420;6.970;2022-08-18T15:35:17;99697.19;;;51.09;8.77
2563;BME280;1291;51.420;6.970;2022-08-18T15:37:45;99703.28;;;51.48;8.03
2563;BME280;1291;51.420;6.970;2022-08-18T15:40:20;99697.81;;;50.93;8.82
2563;BME280;1291;51.420;6.970;2022-08-18T15:42:51;99695.63;;;49.25;9.59
2563;BME280;1291;51.420;6.970;2022-08-18T15:45:23;99693.28;;;51.17;8.67
2563;BME280;1291;51.420;6.970;2022-08-18T15:47:51;99698.72;;;51.05;8.45
2563;BME280;1291;51.420;6.970;2022-08-18T15:50:17;99705.22;;;50.37;8.77
2563;BME280;1291;51.420;6.970;2022-08-18T15:52:51;99701.72;;;51.34;8.29
2563;BME280;1291;51.420;6.970;2022-08-18T15:55:20;99702.06;;;50.33;8.76
2563;BME280;1291;51.420;6.970;2022-08-18T15:57:47;99703.47;;;51.89;8.27
2563;BME280;1291;51.420;6.970;2022-08-18T16:00:15;99700.38;;;52.20;7.93
2563;BME280;1291;51.420;6.970;2022-08-18T16:02:47;99696.16;;;52.30;7.98